Terminal Aerodrome Forecast
Issued by NWS

Home | Current Version | Previous Version | Text Only | Print | Product List | Glossary On
Versions: 1 2 3 4 5 6 7 8 9 10 11 12 13 14 15 16 17 18 19 20 21 22 23 24 25
000
FTUS41 KRLX 040204 AAB
TAFCKB
TAF AMD
KCKB 040204Z 0402/0424 23005KT P6SM SCT050 BKN100
     FM040400 VRB03KT 5SM -SHRA VCTS BKN035CB BKN100
     FM040700 23004KT 5SM BR BKN015
     FM041200 23004KT P6SM BKN025
     FM041400 25006KT P6SM SCT035=

USA.gov is the U.S. government's official web portal to all federal, state and local government web resources and services.